sensor_id;sensor_type;location;lat;lon;timestamp;temperature;humidity
32446;DHT22;18899;50.748;7.102;2023-05-16T00:02:19;12.80;99.90
32446;DHT22;18899;50.748;7.102;2023-05-16T00:04:44;12.80;99.90
32446;DHT22;18899;50.748;7.102;2023-05-16T00:07:10;12.80;99.90
32446;DHT22;18899;50.748;7.102;2023-05-16T00:09:36;12.70;99.90
32446;DHT22;18899;50.748;7.102;2023-05-16T00:12:02;12.60;99.90
32446;DHT22;18899;50.748;7.102;2023-05-16T00:14:28;12.40;99.90
32446;DHT22;18899;50.748;7.102;2023-05-16T00:16:54;12.30;99.90
32446;DHT22;18899;50.748;7.102;2023-05-16T00:19:22;12.40;99.90
32446;DHT22;18899;50.748;7.102;2023-05-16T00:21:48;12.40;99.90
32446;DHT22;18899;50.748;7.102;2023-05-16T00:24:13;12.50;99.90
32446;DHT22;18899;50.748;7.102;2023-05-16T00:26:39;12.50;99.90
32446;DHT22;18899;50.748;7.102;2023-05-16T00:29:05;12.50;99.90
32446;DHT22;18899;50.748;7.102;2023-05-16T00:31:31;12.40;99.90
32446;DHT22;18899;50.748;7.102;2023-05-16T00:33:56;12.30;99.90
32446;DHT22;18899;50.748;7.102;2023-05-16T00:36:22;12.30;99.90
32446;DHT22;18899;50.748;7.102;2023-05-16T00:38:48;12.30;99.90
32446;DHT22;18899;50.748;7.102;2023-05-16T00:41:13;12.20;99.90
32446;DHT22;18899;50.748;7.102;2023-05-16T00:43:39;12.10;99.90
32446;DHT22;18899;50.748;7.102;2023-05-16T00:46:05;12.00;99.90
32446;DHT22;18899;50.748;7.102;2023-05-16T00:48:31;12.10;99.90
32446;DHT22;18899;50.748;7.102;2023-05-16T00:50:57;12.10;99.90
32446;DHT22;18899;50.748;7.102;2023-05-16T00:53:23;12.10;99.90
32446;DHT22;18899;50.748;7.102;2023-05-16T00:55:50;12.00;99.90
32446;DHT22;18899;50.748;7.102;2023-05-16T00:58:16;12.00;99.90
32446;DHT22;18899;50.748;7.102;2023-05-16T01:00:43;11.80;99.90
32446;DHT22;18899;50.748;7.102;2023-05-16T01:03:10;11.70;99.90
32446;DHT22;18899;50.748;7.102;2023-05-16T01:05:36;11.70;99.90
32446;DHT22;18899;50.748;7.102;2023-05-16T01:08:01;11.80;99.90
32446;DHT22;18899;50.748;7.102;2023-05-16T01:10:35;11.70;99.90
32446;DHT22;18899;50.748;7.102;2023-05-16T01:14:06;11.60;99.90
32446;DHT22;18899;50.748;7.102;2023-05-16T01:16:35;11.60;99.90
32446;DHT22;18899;50.748;7.102;2023-05-16T01:21:48;11.50;99.90
32446;DHT22;18899;50.748;7.102;2023-05-16T01:26:58;11.40;99.90
32446;DHT22;18899;50.748;7.102;2023-05-16T01:29:24;11.40;99.90
32446;DHT22;18899;50.748;7.102;2023-05-16T01:31:50;11.40;99.90
32446;DHT22;18899;50.748;7.102;2023-05-16T01:34:16;11.40;99.90
32446;DHT22;18899;50.748;7.102;2023-05-16T01:36:59;11.40;99.90
32446;DHT22;18899;50.748;7.102;2023-05-16T01:39:47;11.40;99.90
32446;DHT22;18899;50.748;7.102;2023-05-16T01:42:18;11.40;99.90
32446;DHT22;18899;50.748;7.102;2023-05-16T01:47:30;11.40;99.90
32446;DHT22;18899;50.748;7.102;2023-05-16T01:50:07;11.40;99.90
32446;DHT22;18899;50.748;7.102;2023-05-16T01:52:37;11.40;99.90
32446;DHT22;18899;50.748;7.102;2023-05-16T01:55:09;11.30;99.90
32446;DHT22;18899;50.748;7.102;2023-05-16T01:57:37;11.30;99.90
32446;DHT22;18899;50.748;7.102;2023-05-16T02:00:03;11.20;99.90
32446;DHT22;18899;50.748;7.102;2023-05-16T02:02:30;11.10;99.90
32446;DHT22;18899;50.748;7.102;2023-05-16T02:04:55;11.00;99.90
32446;DHT22;18899;50.748;7.102;2023-05-16T02:07:21;10.90;99.90
32446;DHT22;18899;50.748;7.102;2023-05-16T02:09:47;10.80;99.90
32446;DHT22;18899;50.748;7.102;2023-05-16T02:12:12;10.80;99.90
32446;DHT22;18899;50.748;7.102;2023-05-16T02:14:38;10.90;99.90
32446;DHT22;18899;50.748;7.102;2023-05-16T02:17:03;11.00;99.90
32446;DHT22;18899;50.748;7.102;2023-05-16T02:19:29;11.00;99.90
32446;DHT22;18899;50.748;7.102;2023-05-16T02:21:54;11.00;99.90
32446;DHT22;18899;50.748;7.102;2023-05-16T02:24:20;10.90;99.90
32446;DHT22;18899;50.748;7.102;2023-05-16T02:26:46;10.90;99.90
32446;DHT22;18899;50.748;7.102;2023-05-16T02:29:12;10.90;99.90
32446;DHT22;18899;50.748;7.102;2023-05-16T02:31:37;10.90;99.90
32446;DHT22;18899;50.748;7.102;2023-05-16T02:34:03;10.90;99.90
32446;DHT22;18899;50.748;7.102;2023-05-16T02:36:28;10.80;99.90
32446;DHT22;18899;50.748;7.102;2023-05-16T02:38:54;10.80;99.90
32446;DHT22;18899;50.748;7.102;2023-05-16T02:41:20;10.80;99.90
32446;DHT22;18899;50.748;7.102;2023-05-16T02:43:47;10.70;99.90
32446;DHT22;18899;50.748;7.102;2023-05-16T02:46:23;10.60;99.90
32446;DHT22;18899;50.748;7.102;2023-05-16T02:48:49;10.50;99.90
32446;DHT22;18899;50.748;7.102;2023-05-16T02:51:16;10.50;99.90
32446;DHT22;18899;50.748;7.102;2023-05-16T02:53:41;10.40;99.90
32446;DHT22;18899;50.748;7.102;2023-05-16T02:56:07;10.40;99.90
32446;DHT22;18899;50.748;7.102;2023-05-16T02:58:33;10.40;99.90
32446;DHT22;18899;50.748;7.102;2023-05-16T03:00:58;10.40;99.90
32446;DHT22;18899;50.748;7.102;2023-05-16T03:03:24;10.40;99.90
32446;DHT22;18899;50.748;7.102;2023-05-16T03:05:49;10.60;99.90
32446;DHT22;18899;50.748;7.102;2023-05-16T03:08:16;10.40;99.90
32446;DHT22;18899;50.748;7.102;2023-05-16T03:10:41;10.20;99.90
32446;DHT22;18899;50.748;7.102;2023-05-16T03:13:07;10.20;99.90
32446;DHT22;18899;50.748;7.102;2023-05-16T03:15:32;10.00;99.90
32446;DHT22;18899;50.748;7.102;2023-05-16T03:17:58;9.90;99.90
32446;DHT22;18899;50.748;7.102;2023-05-16T03:20:23;9.80;99.90
32446;DHT22;18899;50.748;7.102;2023-05-16T03:22:49;9.70;99.90
32446;DHT22;18899;50.748;7.102;2023-05-16T03:25:14;9.70;99.90
32446;DHT22;18899;50.748;7.102;2023-05-16T03:27:40;9.60;99.90
32446;DHT22;18899;50.748;7.102;2023-05-16T03:30:06;9.60;99.90
32446;DHT22;18899;50.748;7.102;2023-05-16T03:32:33;9.60;99.90
32446;DHT22;18899;50.748;7.102;2023-05-16T03:34:58;9.50;99.90
32446;DHT22;18899;50.748;7.102;2023-05-16T03:37:24;9.60;99.90
32446;DHT22;18899;50.748;7.102;2023-05-16T03:39:50;9.60;99.90
32446;DHT22;18899;50.748;7.102;2023-05-16T03:42:16;9.50;99.90
32446;DHT22;18899;50.748;7.102;2023-05-16T03:44:43;9.40;99.90
32446;DHT22;18899;50.748;7.102;2023-05-16T03:47:08;9.30;99.90
32446;DHT22;18899;50.748;7.102;2023-05-16T03:49:34;9.30;99.90
32446;DHT22;18899;50.748;7.102;2023-05-16T03:52:02;9.40;99.90
32446;DHT22;18899;50.748;7.102;2023-05-16T03:54:28;9.40;99.90
32446;DHT22;18899;50.748;7.102;2023-05-16T03:56:53;9.30;99.90
32446;DHT22;18899;50.748;7.102;2023-05-16T03:59:19;9.30;99.90
32446;DHT22;18899;50.748;7.102;2023-05-16T04:01:44;9.40;99.90
32446;DHT22;18899;50.748;7.102;2023-05-16T04:04:10;9.30;99.90
32446;DHT22;18899;50.748;7.102;2023-05-16T04:06:35;9.30;99.90
32446;DHT22;18899;50.748;7.102;2023-05-16T04:09:01;9.30;99.90
32446;DHT22;18899;50.748;7.102;2023-05-16T04:11:26;9.30;99.90
32446;DHT22;18899;50.748;7.102;2023-05-16T04:13:52;9.30;99.90
32446;DHT22;18899;50.748;7.102;2023-05-16T04:16:18;9.30;99.90
32446;DHT22;18899;50.748;7.102;2023-05-16T04:18:44;9.30;99.90
32446;DHT22;18899;50.748;7.102;2023-05-16T04:21:10;9.30;99.90
32446;DHT22;18899;50.748;7.102;2023-05-16T04:23:40;9.30;99.90
32446;DHT22;18899;50.748;7.102;2023-05-16T04:26:05;9.30;99.90
32446;DHT22;18899;50.748;7.102;2023-05-16T04:28:31;9.30;99.90
32446;DHT22;18899;50.748;7.102;2023-05-16T04:30:57;9.30;99.90
32446;DHT22;18899;50.748;7.102;2023-05-16T04:33:22;9.30;99.90
32446;DHT22;18899;50.748;7.102;2023-05-16T04:35:48;9.20;99.90
32446;DHT22;18899;50.748;7.102;2023-05-16T04:38:14;9.20;99.90
32446;DHT22;18899;50.748;7.102;2023-05-16T04:40:40;9.10;99.90
32446;DHT22;18899;50.748;7.102;2023-05-16T04:43:08;9.10;99.90
32446;DHT22;18899;50.748;7.102;2023-05-16T04:45:33;9.10;99.90
32446;DHT22;18899;50.748;7.102;2023-05-16T04:48:00;9.10;99.90
32446;DHT22;18899;50.748;7.102;2023-05-16T04:50:25;9.00;99.90
32446;DHT22;18899;50.748;7.102;2023-05-16T04:52:51;9.10;99.90
32446;DHT22;18899;50.748;7.102;2023-05-16T04:55:17;9.10;99.90
32446;DHT22;18899;50.748;7.102;2023-05-16T04:57:42;9.10;99.90
32446;DHT22;18899;50.748;7.102;2023-05-16T05:00:08;9.10;99.90
32446;DHT22;18899;50.748;7.102;2023-05-16T05:02:37;9.20;99.90
32446;DHT22;18899;50.748;7.102;2023-05-16T05:05:04;9.20;99.90
32446;DHT22;18899;50.748;7.102;2023-05-16T05:07:31;9.10;99.90
32446;DHT22;18899;50.748;7.102;2023-05-16T05:09:56;9.10;99.90
32446;DHT22;18899;50.748;7.102;2023-05-16T05:12:22;9.10;99.90
32446;DHT22;18899;50.748;7.102;2023-05-16T05:14:47;9.10;99.90
32446;DHT22;18899;50.748;7.102;2023-05-16T05:17:13;9.20;99.90
32446;DHT22;18899;50.748;7.102;2023-05-16T05:19:38;9.10;99.90
32446;DHT22;18899;50.748;7.102;2023-05-16T05:22:04;9.10;99.90
32446;DHT22;18899;50.748;7.102;2023-05-16T05:24:30;9.10;99.90
32446;DHT22;18899;50.748;7.102;2023-05-16T05:26:55;9.10;99.90
32446;DHT22;18899;50.748;7.102;2023-05-16T05:29:21;9.20;99.90
32446;DHT22;18899;50.748;7.102;2023-05-16T05:31:47;9.20;99.90
32446;DHT22;18899;50.748;7.102;2023-05-16T05:34:12;9.30;99.90
32446;DHT22;18899;50.748;7.102;2023-05-16T05:36:38;9.20;99.90
32446;DHT22;18899;50.748;7.102;2023-05-16T05:39:04;9.30;99.90
32446;DHT22;18899;50.748;7.102;2023-05-16T05:41:30;9.30;99.90
32446;DHT22;18899;50.748;7.102;2023-05-16T05:43:56;9.30;99.90
32446;DHT22;18899;50.748;7.102;2023-05-16T05:46:22;9.50;99.90
32446;DHT22;18899;50.748;7.102;2023-05-16T05:48:48;9.50;99.90
32446;DHT22;18899;50.748;7.102;2023-05-16T05:51:14;9.70;99.90
32446;DHT22;18899;50.748;7.102;2023-05-16T05:53:40;9.90;99.90
32446;DHT22;18899;50.748;7.102;2023-05-16T05:56:06;9.90;99.90
32446;DHT22;18899;50.748;7.102;2023-05-16T05:58:31;10.00;99.90
32446;DHT22;18899;50.748;7.102;2023-05-16T06:00:57;10.10;99.90
32446;DHT22;18899;50.748;7.102;2023-05-16T06:03:23;10.20;99.90
32446;DHT22;18899;50.748;7.102;2023-05-16T06:05:48;10.20;99.90
32446;DHT22;18899;50.748;7.102;2023-05-16T06:08:14;10.00;99.90
32446;DHT22;18899;50.748;7.102;2023-05-16T06:10:39;9.90;99.90
32446;DHT22;18899;50.748;7.102;2023-05-16T06:13:05;9.80;99.90
32446;DHT22;18899;50.748;7.102;2023-05-16T06:15:30;9.90;99.90
32446;DHT22;18899;50.748;7.102;2023-05-16T06:17:56;10.10;99.90
32446;DHT22;18899;50.748;7.102;2023-05-16T06:20:22;10.00;99.90
32446;DHT22;18899;50.748;7.102;2023-05-16T06:22:48;10.40;99.90
32446;DHT22;18899;50.748;7.102;2023-05-16T06:25:13;11.40;99.90
32446;DHT22;18899;50.748;7.102;2023-05-16T06:27:39;12.30;99.90
32446;DHT22;18899;50.748;7.102;2023-05-16T06:30:05;12.50;99.90
32446;DHT22;18899;50.748;7.102;2023-05-16T06:32:31;13.30;99.90
32446;DHT22;18899;50.748;7.102;2023-05-16T06:34:56;13.50;99.90
32446;DHT22;18899;50.748;7.102;2023-05-16T06:37:22;14.00;99.90
32446;DHT22;18899;50.748;7.102;2023-05-16T06:39:48;14.50;99.90
32446;DHT22;18899;50.748;7.102;2023-05-16T06:42:14;14.50;99.90
32446;DHT22;18899;50.748;7.102;2023-05-16T06:44:39;14.30;99.90
32446;DHT22;18899;50.748;7.102;2023-05-16T06:47:05;14.50;99.90
32446;DHT22;18899;50.748;7.102;2023-05-16T06:49:31;14.30;99.90
32446;DHT22;18899;50.748;7.102;2023-05-16T06:51:56;13.90;99.90
32446;DHT22;18899;50.748;7.102;2023-05-16T06:54:22;13.70;99.90
32446;DHT22;18899;50.748;7.102;2023-05-16T06:56:48;14.00;99.90
32446;DHT22;18899;50.748;7.102;2023-05-16T06:59:13;14.20;99.90
32446;DHT22;18899;50.748;7.102;2023-05-16T07:01:38;14.50;99.90
32446;DHT22;18899;50.748;7.102;2023-05-16T07:04:05;15.30;99.90
32446;DHT22;18899;50.748;7.102;2023-05-16T07:06:31;15.60;99.90
32446;DHT22;18899;50.748;7.102;2023-05-16T07:08:57;15.40;99.90
32446;DHT22;18899;50.748;7.102;2023-05-16T07:11:22;15.30;99.90
32446;DHT22;18899;50.748;7.102;2023-05-16T07:13:48;14.60;99.90
32446;DHT22;18899;50.748;7.102;2023-05-16T07:16:13;14.70;99.90
32446;DHT22;18899;50.748;7.102;2023-05-16T07:18:39;14.90;99.90
32446;DHT22;18899;50.748;7.102;2023-05-16T07:21:04;15.30;99.70
32446;DHT22;18899;50.748;7.102;2023-05-16T07:23:30;15.60;99.90
32446;DHT22;18899;50.748;7.102;2023-05-16T07:25:56;17.00;98.00
32446;DHT22;18899;50.748;7.102;2023-05-16T07:28:22;17.60;93.10
32446;DHT22;18899;50.748;7.102;2023-05-16T07:30:47;17.50;90.50
32446;DHT22;18899;50.748;7.102;2023-05-16T07:33:13;17.40;90.20
32446;DHT22;18899;50.748;7.102;2023-05-16T07:35:39;16.80;90.70
32446;DHT22;18899;50.748;7.102;2023-05-16T07:38:04;16.80;90.90
32446;DHT22;18899;50.748;7.102;2023-05-16T07:40:30;15.90;93.50
32446;DHT22;18899;50.748;7.102;2023-05-16T07:42:56;14.90;98.20
32446;DHT22;18899;50.748;7.102;2023-05-16T07:45:21;14.90;96.20
32446;DHT22;18899;50.748;7.102;2023-05-16T07:47:47;14.90;96.80
32446;DHT22;18899;50.748;7.102;2023-05-16T07:50:13;15.90;96.40
32446;DHT22;18899;50.748;7.102;2023-05-16T07:52:38;17.50;92.60
32446;DHT22;18899;50.748;7.102;2023-05-16T07:55:04;18.60;82.10
32446;DHT22;18899;50.748;7.102;2023-05-16T07:57:30;19.60;77.50
32446;DHT22;18899;50.748;7.102;2023-05-16T07:59:56;19.10;80.00
32446;DHT22;18899;50.748;7.102;2023-05-16T08:02:22;18.90;79.30
32446;DHT22;18899;50.748;7.102;2023-05-16T08:04:55;18.00;81.80
32446;DHT22;18899;50.748;7.102;2023-05-16T08:07:22;17.30;85.90
32446;DHT22;18899;50.748;7.102;2023-05-16T08:09:47;17.20;82.90
32446;DHT22;18899;50.748;7.102;2023-05-16T08:12:13;17.50;83.50
32446;DHT22;18899;50.748;7.102;2023-05-16T08:14:38;17.70;77.50
32446;DHT22;18899;50.748;7.102;2023-05-16T08:17:04;17.20;83.30
32446;DHT22;18899;50.748;7.102;2023-05-16T08:19:30;16.50;83.10
32446;DHT22;18899;50.748;7.102;2023-05-16T08:21:57;15.90;85.80
32446;DHT22;18899;50.748;7.102;2023-05-16T08:24:23;16.10;91.50
32446;DHT22;18899;50.748;7.102;2023-05-16T08:26:51;16.10;83.00
32446;DHT22;18899;50.748;7.102;2023-05-16T08:29:17;16.00;85.10
32446;DHT22;18899;50.748;7.102;2023-05-16T08:31:43;15.80;88.50
32446;DHT22;18899;50.748;7.102;2023-05-16T08:34:08;16.60;83.70
32446;DHT22;18899;50.748;7.102;2023-05-16T08:36:35;15.90;83.20
32446;DHT22;18899;50.748;7.102;2023-05-16T08:39:01;14.90;89.60
32446;DHT22;18899;50.748;7.102;2023-05-16T08:41:26;14.40;89.10
32446;DHT22;18899;50.748;7.102;2023-05-16T08:43:52;14.20;90.80
32446;DHT22;18899;50.748;7.102;2023-05-16T08:46:21;14.00;92.20
32446;DHT22;18899;50.748;7.102;2023-05-16T08:48:52;14.60;90.20
32446;DHT22;18899;50.748;7.102;2023-05-16T08:51:19;16.10;91.50
32446;DHT22;18899;50.748;7.102;2023-05-16T08:53:51;17.10;83.00
32446;DHT22;18899;50.748;7.102;2023-05-16T08:56:19;16.40;80.10
32446;DHT22;18899;50.748;7.102;2023-05-16T08:58:47;16.10;80.70
32446;DHT22;18899;50.748;7.102;2023-05-16T09:01:13;15.90;81.40
32446;DHT22;18899;50.748;7.102;2023-05-16T09:03:39;16.70;80.20
32446;DHT22;18899;50.748;7.102;2023-05-16T09:06:05;17.40;79.00
32446;DHT22;18899;50.748;7.102;2023-05-16T09:08:31;17.40;76.40
32446;DHT22;18899;50.748;7.102;2023-05-16T09:10:56;17.60;75.40
32446;DHT22;18899;50.748;7.102;2023-05-16T09:13:23;18.90;76.80
32446;DHT22;18899;50.748;7.102;2023-05-16T09:16:11;20.00;67.90
32446;DHT22;18899;50.748;7.102;2023-05-16T09:18:37;21.10;67.00
32446;DHT22;18899;50.748;7.102;2023-05-16T09:21:06;21.70;63.50
32446;DHT22;18899;50.748;7.102;2023-05-16T09:23:33;20.30;66.70
32446;DHT22;18899;50.748;7.102;2023-05-16T09:26:06;17.80;69.80
32446;DHT22;18899;50.748;7.102;2023-05-16T09:28:37;17.50;76.10
32446;DHT22;18899;50.748;7.102;2023-05-16T09:31:03;18.50;76.50
32446;DHT22;18899;50.748;7.102;2023-05-16T09:33:29;19.30;70.70
32446;DHT22;18899;50.748;7.102;2023-05-16T09:35:59;19.20;70.60
32446;DHT22;18899;50.748;7.102;2023-05-16T09:38:26;18.50;74.00
32446;DHT22;18899;50.748;7.102;2023-05-16T09:40:55;18.50;72.70
32446;DHT22;18899;50.748;7.102;2023-05-16T09:43:26;18.90;72.70
32446;DHT22;18899;50.748;7.102;2023-05-16T09:45:52;19.50;70.30
32446;DHT22;18899;50.748;7.102;2023-05-16T09:48:20;19.60;69.70
32446;DHT22;18899;50.748;7.102;2023-05-16T09:50:52;19.50;67.30
32446;DHT22;18899;50.748;7.102;2023-05-16T09:53:29;18.60;69.30
32446;DHT22;18899;50.748;7.102;2023-05-16T09:56:12;18.70;71.70
32446;DHT22;18899;50.748;7.102;2023-05-16T09:58:39;19.40;67.90
32446;DHT22;18899;50.748;7.102;2023-05-16T10:01:06;19.60;65.50
32446;DHT22;18899;50.748;7.102;2023-05-16T10:03:37;20.00;64.80
32446;DHT22;18899;50.748;7.102;2023-05-16T10:06:04;20.60;65.50
32446;DHT22;18899;50.748;7.102;2023-05-16T10:08:32;19.20;63.60
32446;DHT22;18899;50.748;7.102;2023-05-16T10:11:01;18.90;69.50
32446;DHT22;18899;50.748;7.102;2023-05-16T10:13:28;19.20;66.40
32446;DHT22;18899;50.748;7.102;2023-05-16T10:15:56;19.80;63.10
32446;DHT22;18899;50.748;7.102;2023-05-16T10:18:27;21.00;63.80
32446;DHT22;18899;50.748;7.102;2023-05-16T10:20:54;20.40;61.30
32446;DHT22;18899;50.748;7.102;2023-05-16T10:23:24;20.60;60.40
32446;DHT22;18899;50.748;7.102;2023-05-16T10:25:51;20.80;59.70
32446;DHT22;18899;50.748;7.102;2023-05-16T10:28:17;19.60;62.60
32446;DHT22;18899;50.748;7.102;2023-05-16T10:30:45;18.30;66.40
32446;DHT22;18899;50.748;7.102;2023-05-16T10:33:15;17.60;69.40
32446;DHT22;18899;50.748;7.102;2023-05-16T10:35:42;18.60;68.80
32446;DHT22;18899;50.748;7.102;2023-05-16T10:38:09;19.40;69.10
32446;DHT22;18899;50.748;7.102;2023-05-16T10:40:37;20.30;65.90
32446;DHT22;18899;50.748;7.102;2023-05-16T10:43:05;20.80;60.50
32446;DHT22;18899;50.748;7.102;2023-05-16T10:45:30;20.60;60.10
32446;DHT22;18899;50.748;7.102;2023-05-16T10:50:36;18.90;65.90
32446;DHT22;18899;50.748;7.102;2023-05-16T10:55:38;16.80;71.60
32446;DHT22;18899;50.748;7.102;2023-05-16T10:58:04;16.40;73.30
32446;DHT22;18899;50.748;7.102;2023-05-16T11:00:30;16.30;71.70
32446;DHT22;18899;50.748;7.102;2023-05-16T11:03:04;16.00;71.90
32446;DHT22;18899;50.748;7.102;2023-05-16T11:05:30;15.70;73.10
32446;DHT22;18899;50.748;7.102;2023-05-16T11:08:04;15.60;79.40
32446;DHT22;18899;50.748;7.102;2023-05-16T11:10:30;15.70;76.80
32446;DHT22;18899;50.748;7.102;2023-05-16T11:13:03;15.80;78.30
32446;DHT22;18899;50.748;7.102;2023-05-16T11:15:31;16.00;77.30
32446;DHT22;18899;50.748;7.102;2023-05-16T11:18:12;15.80;73.00
32446;DHT22;18899;50.748;7.102;2023-05-16T11:20:39;15.90;77.40
32446;DHT22;18899;50.748;7.102;2023-05-16T11:23:25;16.30;78.70
32446;DHT22;18899;50.748;7.102;2023-05-16T11:25:55;16.20;76.10
32446;DHT22;18899;50.748;7.102;2023-05-16T11:28:23;16.50;68.50
32446;DHT22;18899;50.748;7.102;2023-05-16T11:30:51;16.20;71.30
32446;DHT22;18899;50.748;7.102;2023-05-16T11:33:19;16.20;69.30
32446;DHT22;18899;50.748;7.102;2023-05-16T11:36:04;16.40;75.80
32446;DHT22;18899;50.748;7.102;2023-05-16T11:38:31;16.20;74.70
32446;DHT22;18899;50.748;7.102;2023-05-16T11:41:04;16.10;75.20
32446;DHT22;18899;50.748;7.102;2023-05-16T11:43:39;16.30;71.80
32446;DHT22;18899;50.748;7.102;2023-05-16T11:46:05;16.60;74.70
32446;DHT22;18899;50.748;7.102;2023-05-16T11:48:32;16.70;68.70
32446;DHT22;18899;50.748;7.102;2023-05-16T11:50:58;16.80;69.40
32446;DHT22;18899;50.748;7.102;2023-05-16T11:53:23;16.50;70.50
32446;DHT22;18899;50.748;7.102;2023-05-16T11:55:49;16.70;70.80
32446;DHT22;18899;50.748;7.102;2023-05-16T11:58:18;16.50;72.50
32446;DHT22;18899;50.748;7.102;2023-05-16T12:00:50;16.40;71.50
32446;DHT22;18899;50.748;7.102;2023-05-16T12:03:17;16.50;71.10
32446;DHT22;18899;50.748;7.102;2023-05-16T12:05:50;16.60;74.80
32446;DHT22;18899;50.748;7.102;2023-05-16T12:08:18;16.40;71.60
32446;DHT22;18899;50.748;7.102;2023-05-16T12:10:44;15.90;71.80
32446;DHT22;18899;50.748;7.102;2023-05-16T12:13:10;16.10;74.40
32446;DHT22;18899;50.748;7.102;2023-05-16T12:15:36;16.50;75.00
32446;DHT22;18899;50.748;7.102;2023-05-16T12:18:01;16.30;73.40
32446;DHT22;18899;50.748;7.102;2023-05-16T12:20:27;16.20;72.50
32446;DHT22;18899;50.748;7.102;2023-05-16T12:22:56;16.40;73.70
32446;DHT22;18899;50.748;7.102;2023-05-16T12:25:33;16.30;76.10
32446;DHT22;18899;50.748;7.102;2023-05-16T12:28:06;16.10;74.10
32446;DHT22;18899;50.748;7.102;2023-05-16T12:30:32;15.90;76.10
32446;DHT22;18899;50.748;7.102;2023-05-16T12:33:02;15.80;74.80
32446;DHT22;18899;50.748;7.102;2023-05-16T12:35:32;15.50;76.50
32446;DHT22;18899;50.748;7.102;2023-05-16T12:38:08;15.40;77.60
32446;DHT22;18899;50.748;7.102;2023-05-16T12:40:39;15.50;80.50
32446;DHT22;18899;50.748;7.102;2023-05-16T12:43:13;15.90;81.20
32446;DHT22;18899;50.748;7.102;2023-05-16T12:45:39;16.00;78.80
32446;DHT22;18899;50.748;7.102;2023-05-16T12:48:10;15.90;78.30
32446;DHT22;18899;50.748;7.102;2023-05-16T12:50:38;15.70;80.60
32446;DHT22;18899;50.748;7.102;2023-05-16T12:53:04;15.80;79.20
32446;DHT22;18899;50.748;7.102;2023-05-16T12:55:30;15.70;79.60
32446;DHT22;18899;50.748;7.102;2023-05-16T12:57:55;15.80;76.90
32446;DHT22;18899;50.748;7.102;2023-05-16T13:00:22;15.70;79.80
32446;DHT22;18899;50.748;7.102;2023-05-16T13:02:48;15.60;79.30
32446;DHT22;18899;50.748;7.102;2023-05-16T13:05:14;15.40;76.80
32446;DHT22;18899;50.748;7.102;2023-05-16T13:07:39;15.30;77.50
32446;DHT22;18899;50.748;7.102;2023-05-16T13:10:11;15.20;78.90
32446;DHT22;18899;50.748;7.102;2023-05-16T13:12:40;15.20;77.30
32446;DHT22;18899;50.748;7.102;2023-05-16T13:15:07;15.40;79.10
32446;DHT22;18899;50.748;7.102;2023-05-16T13:17:34;15.70;75.80
32446;DHT22;18899;50.748;7.102;2023-05-16T13:19:59;15.90;77.20
32446;DHT22;18899;50.748;7.102;2023-05-16T13:22:26;15.90;72.30
32446;DHT22;18899;50.748;7.102;2023-05-16T13:24:51;15.70;74.90
32446;DHT22;18899;50.748;7.102;2023-05-16T13:27:17;15.60;77.30
32446;DHT22;18899;50.748;7.102;2023-05-16T13:29:43;15.60;76.20
32446;DHT22;18899;50.748;7.102;2023-05-16T13:32:09;15.60;74.30
32446;DHT22;18899;50.748;7.102;2023-05-16T13:34:34;15.60;78.60
32446;DHT22;18899;50.748;7.102;2023-05-16T13:37:00;15.50;80.00
32446;DHT22;18899;50.748;7.102;2023-05-16T13:39:26;15.30;79.00
32446;DHT22;18899;50.748;7.102;2023-05-16T13:41:51;15.40;79.40
32446;DHT22;18899;50.748;7.102;2023-05-16T13:44:17;15.30;83.10
32446;DHT22;18899;50.748;7.102;2023-05-16T13:46:43;15.40;84.40
32446;DHT22;18899;50.748;7.102;2023-05-16T13:49:09;15.30;80.60
32446;DHT22;18899;50.748;7.102;2023-05-16T13:51:35;15.40;83.80
32446;DHT22;18899;50.748;7.102;2023-05-16T13:54:00;15.60;81.90
32446;DHT22;18899;50.748;7.102;2023-05-16T13:56:26;15.60;84.10
32446;DHT22;18899;50.748;7.102;2023-05-16T13:58:51;15.60;82.90
32446;DHT22;18899;50.748;7.102;2023-05-16T14:01:17;15.40;81.40
32446;DHT22;18899;50.748;7.102;2023-05-16T14:03:42;15.50;82.20
32446;DHT22;18899;50.748;7.102;2023-05-16T14:06:08;15.60;83.00
32446;DHT22;18899;50.748;7.102;2023-05-16T14:08:34;15.60;83.40
32446;DHT22;18899;50.748;7.102;2023-05-16T14:11:00;15.60;83.30
32446;DHT22;18899;50.748;7.102;2023-05-16T14:13:25;15.50;88.60
32446;DHT22;18899;50.748;7.102;2023-05-16T14:15:51;15.50;86.70
32446;DHT22;18899;50.748;7.102;2023-05-16T14:18:16;15.10;81.70
32446;DHT22;18899;50.748;7.102;2023-05-16T14:20:42;14.60;81.50
32446;DHT22;18899;50.748;7.102;2023-05-16T14:23:08;14.50;84.20
32446;DHT22;18899;50.748;7.102;2023-05-16T14:25:33;14.50;84.60
32446;DHT22;18899;50.748;7.102;2023-05-16T14:27:59;14.70;85.00
32446;DHT22;18899;50.748;7.102;2023-05-16T14:30:24;14.80;83.50
32446;DHT22;18899;50.748;7.102;2023-05-16T14:32:51;14.70;82.10
32446;DHT22;18899;50.748;7.102;2023-05-16T14:35:16;14.60;80.30
32446;DHT22;18899;50.748;7.102;2023-05-16T14:37:42;14.60;80.80
32446;DHT22;18899;50.748;7.102;2023-05-16T14:40:08;14.70;79.50
32446;DHT22;18899;50.748;7.102;2023-05-16T14:42:34;14.70;76.30
32446;DHT22;18899;50.748;7.102;2023-05-16T14:45:00;14.80;77.10
32446;DHT22;18899;50.748;7.102;2023-05-16T14:47:25;14.80;77.30
32446;DHT22;18899;50.748;7.102;2023-05-16T14:49:52;14.80;80.60
32446;DHT22;18899;50.748;7.102;2023-05-16T14:52:18;14.80;78.50
32446;DHT22;18899;50.748;7.102;2023-05-16T14:54:44;14.80;75.60
32446;DHT22;18899;50.748;7.102;2023-05-16T14:57:10;14.70;75.40
32446;DHT22;18899;50.748;7.102;2023-05-16T14:59:35;14.70;80.10
32446;DHT22;18899;50.748;7.102;2023-05-16T15:02:01;14.70;79.70
32446;DHT22;18899;50.748;7.102;2023-05-16T15:04:26;14.80;77.30
32446;DHT22;18899;50.748;7.102;2023-05-16T15:06:53;14.90;76.80
32446;DHT22;18899;50.748;7.102;2023-05-16T15:09:18;15.00;78.00
32446;DHT22;18899;50.748;7.102;2023-05-16T15:11:44;15.10;75.00
32446;DHT22;18899;50.748;7.102;2023-05-16T15:14:10;15.00;72.90
32446;DHT22;18899;50.748;7.102;2023-05-16T15:16:36;15.10;75.00
32446;DHT22;18899;50.748;7.102;2023-05-16T15:19:01;15.10;73.70
32446;DHT22;18899;50.748;7.102;2023-05-16T15:21:27;15.20;79.50
32446;DHT22;18899;50.748;7.102;2023-05-16T15:23:53;15.10;73.40
32446;DHT22;18899;50.748;7.102;2023-05-16T15:26:19;15.00;73.00
32446;DHT22;18899;50.748;7.102;2023-05-16T15:28:47;15.10;74.40
32446;DHT22;18899;50.748;7.102;2023-05-16T15:31:13;15.00;75.00
32446;DHT22;18899;50.748;7.102;2023-05-16T15:33:39;15.00;75.20
32446;DHT22;18899;50.748;7.102;2023-05-16T15:36:05;14.90;75.90
32446;DHT22;18899;50.748;7.102;2023-05-16T15:38:31;14.80;77.90
32446;DHT22;18899;50.748;7.102;2023-05-16T15:40:56;14.60;76.90
32446;DHT22;18899;50.748;7.102;2023-05-16T15:43:22;14.70;78.30
32446;DHT22;18899;50.748;7.102;2023-05-16T15:45:48;14.60;78.60